Time;durP1;ratioP1;P1;durP2;ratioP2;P2;SDS_P1;SDS_P2;PMS_P1;PMS_P2;Temp;Humidity;BMP_temperature;BMP_pressure;BME280_temperature;BME280_humidity;BME280_pressure;Samples;Min_cycle;Max_cycle;Signal;HPM_P1;HPM_P2
2021/08/11 00:04:41;;;;;;;;;;;;;;;22.09;50.81;98388.17;129808;1095;114087;-78
2021/08/11 00:08:07;;;;;;;7.35;3.33;;;;;;;22.04;50.38;98397.52;129782;1095;100191;-78
2021/08/11 00:11:35;;;;;;;6.85;3.30;;;;;;;22.00;50.40;98396.72;129747;1096;113889;-78
2021/08/11 00:15:02;;;;;;;6.15;3.08;;;;;;;21.98;50.70;98397.13;129774;1095;113962;-78
2021/08/11 00:18:29;;;;;;;6.08;3.23;;;;;;;21.96;50.74;98404.15;129725;1096;114083;-78
2021/08/11 00:21:56;;;;;;;7.37;3.20;;;;;;;21.94;50.90;98404.55;129732;1095;114499;-79
2021/08/11 00:25:23;;;;;;;7.55;3.23;;;;;;;21.91;51.01;98404.52;129771;1096;113894;-78
2021/08/11 00:28:51;;;;;;;5.18;2.80;;;;;;;21.88;51.02;98403.32;129722;1095;113870;-79
2021/08/11 00:35:43;;;;;;;5.98;3.80;;;;;;;21.86;50.95;98410.38;129617;1095;114155;-78
2021/08/11 00:46:04;;;;;;;6.33;3.23;;;;;;;21.78;51.50;98417.77;129701;1096;114054;-78
2021/08/11 00:49:31;;;;;;;7.70;3.18;;;;;;;21.76;51.48;98420.88;129460;1095;113941;-79
2021/08/11 00:52:57;;;;;;;5.60;3.33;;;;;;;21.73;51.45;98416.18;129765;1096;113924;-79
2021/08/11 00:56:26;;;;;;;8.28;3.43;;;;;;;21.72;51.88;98416.55;129490;1096;113941;-79
2021/08/11 00:59:54;;;;;;;8.23;3.35;;;;;;;21.69;51.81;98412.63;129772;1095;113897;-79
2021/08/11 01:05:19;;;;;;;5.95;3.15;;;;;;;21.64;52.17;98407.49;129827;1096;23003;-81
2021/08/11 01:07:48;;;;;;;4.90;3.10;;;;;;;21.62;52.14;98404.36;129475;1096;114739;-81
2021/08/11 01:10:15;;;;;;;5.50;3.08;;;;;;;21.60;52.31;98409.42;129471;1096;113976;-81
2021/08/11 01:12:42;;;;;;;7.80;3.40;;;;;;;21.58;52.27;98419.22;129479;1096;114176;-81
2021/08/11 01:15:08;;;;;;;5.73;3.20;;;;;;;21.58;52.34;98417.26;129723;1095;114573;-81
2021/08/11 01:17:34;;;;;;;6.83;3.60;;;;;;;21.57;52.11;98418.41;129464;1096;114088;-81
2021/08/11 01:20:03;;;;;;;6.00;3.10;;;;;;;21.56;52.15;98414.88;129538;1096;22559;-81
2021/08/11 01:22:50;;;;;;;8.20;3.50;;;;;;;21.55;52.12;98412.53;129446;1096;113891;-81
2021/08/11 01:25:40;;;;;;;6.63;3.78;;;;;;;21.54;52.41;98408.23;129448;1096;113993;-81
2021/08/11 01:28:52;;;;;;;5.00;3.10;;;;;;;21.52;52.32;98396.85;129721;1096;113911;-81
2021/08/11 01:31:23;;;;;;;7.30;3.80;;;;;;;21.49;52.58;98414.83;129465;1095;114106;-81
2021/08/11 01:34:09;;;;;;;6.03;3.30;;;;;;;21.47;52.59;98408.95;129451;1096;113967;-80
2021/08/11 01:36:39;;;;;;;7.95;3.50;;;;;;;21.46;52.76;98412.09;129727;1096;114100;-80
2021/08/11 01:39:11;;;;;;;6.85;3.40;;;;;;;21.43;52.76;98410.10;129694;1096;114127;-80
2021/08/11 01:41:50;;;;;;;8.05;3.45;;;;;;;21.41;53.20;98404.98;129739;1096;114096;-80
2021/08/11 01:44:22;;;;;;;7.10;3.55;;;;;;;21.40;53.10;98408.12;129868;1095;22635;-80
2021/08/11 01:46:49;;;;;;;7.48;4.20;;;;;;;21.38;53.13;98403.03;129467;1096;113643;-80
2021/08/11 01:49:16;;;;;;;5.40;3.35;;;;;;;21.36;52.99;98402.61;129466;1096;114835;-80
2021/08/11 01:51:46;;;;;;;6.28;3.60;;;;;;;21.36;53.03;98405.34;129754;1096;114215;-80
2021/08/11 01:54:14;;;;;;;7.20;3.85;;;;;;;21.32;53.20;98404.51;129460;1096;114356;-81
2021/08/11 01:56:42;;;;;;;8.68;3.50;;;;;;;21.32;53.36;98396.29;129445;1096;114112;-81
2021/08/11 01:59:09;;;;;;;7.68;3.65;;;;;;;21.30;53.38;98396.68;129559;1096;22512;-81
2021/08/11 02:01:41;;;;;;;7.63;4.35;;;;;;;21.28;53.48;98404.48;129426;1096;113777;-81
2021/08/11 02:04:08;;;;;;;7.58;4.30;;;;;;;21.27;53.63;98408.39;129419;1096;113938;-81
2021/08/11 02:06:36;;;;;;;7.50;3.80;;;;;;;21.27;53.56;98407.61;129421;1096;114234;-81
2021/08/11 02:09:02;;;;;;;8.25;4.18;;;;;;;21.25;53.72;98404.45;129465;1096;114275;-81
2021/08/11 02:11:29;;;;;;;9.25;3.75;;;;;;;21.24;54.10;98400.92;129512;1096;22508;-81
2021/08/11 02:13:56;;;;;;;9.00;3.50;;;;;;;21.22;54.12;98407.94;129419;1096;115323;-80
2021/08/11 02:16:23;;;;;;;10.00;3.95;;;;;;;21.22;54.22;98408.75;129408;1096;113961;-80
2021/08/11 02:18:48;;;;;;;7.98;4.05;;;;;;;21.21;54.45;98407.16;129423;1096;114111;-80
2021/08/11 02:21:14;;;;;;;6.80;3.53;;;;;;;21.20;54.37;98404.80;129513;1096;114103;-80
2021/08/11 02:23:41;;;;;;;7.28;3.65;;;;;;;21.19;54.61;98395.80;129384;1096;114239;-80
2021/08/11 02:26:20;;;;;;;6.43;3.53;;;;;;;21.18;54.47;98401.64;129535;1095;22529;-80
2021/08/11 02:29:02;;;;;;;9.10;4.30;;;;;;;21.17;54.75;98389.91;129426;1096;113777;-80
2021/08/11 02:32:03;;;;;;;6.53;3.60;;;;;;;21.16;54.87;98396.56;129397;1096;113270;-80
2021/08/11 02:35:08;;;;;;;8.13;3.58;;;;;;;21.15;54.62;98396.95;128501;1097;114156;-80
2021/08/11 02:37:46;;;;;;;8.10;3.93;;;;;;;21.13;55.04;98391.84;129498;1096;113923;-81
2021/08/11 02:40:20;;;;;;;6.15;3.53;;;;;;;21.13;55.22;98396.53;129511;1095;114134;-81
2021/08/11 02:43:05;;;;;;;6.68;3.75;;;;;;;21.11;55.20;98391.44;129419;1096;114407;-81
2021/08/11 02:45:34;;;;;;;5.23;3.53;;;;;;;21.12;55.29;98390.27;129433;1095;114144;-81
2021/08/11 02:48:01;;;;;;;8.70;3.75;;;;;;;21.12;55.47;98390.27;129428;1096;114238;-81
2021/08/11 02:50:27;;;;;;;4.03;3.10;;;;;;;21.12;55.64;98393.01;129519;1096;22572;-81
2021/08/11 02:52:55;;;;;;;6.53;3.18;;;;;;;21.12;55.69;98394.97;129396;1095;113707;-81
2021/08/11 02:55:22;;;;;;;5.73;3.30;;;;;;;21.12;55.74;98394.97;129447;1096;114321;-81
2021/08/11 02:57:49;;;;;;;7.15;3.40;;;;;;;21.12;55.71;98395.75;129416;1095;113999;-81
2021/08/11 03:00:16;;;;;;;5.83;3.70;;;;;;;21.13;55.97;98391.05;129416;1095;114202;-81
2021/08/11 03:02:43;;;;;;;6.95;3.60;;;;;;;21.13;56.27;98394.57;129423;1097;114030;-81
2021/08/11 03:05:10;;;;;;;5.50;3.60;;;;;;;21.14;56.32;98396.14;129517;1096;22548;-81
2021/08/11 03:07:37;;;;;;;7.03;3.43;;;;;;;21.15;56.75;98399.69;129429;1095;113939;-81
2021/08/11 03:10:05;;;;;;;6.53;3.45;;;;;;;21.18;57.03;98399.72;129429;1096;114037;-81
2021/08/11 03:12:31;;;;;;;7.30;3.40;;;;;;;21.25;57.50;98401.70;129505;1095;113957;-81
2021/08/11 03:14:58;;;;;;;5.30;3.38;;;;;;;21.31;57.65;98403.72;129418;1096;114191;-81
2021/08/11 03:17:25;;;;;;;7.23;4.63;;;;;;;21.37;57.52;98401.44;129542;1096;22530;-80
2021/08/11 03:19:51;;;;;;;6.25;3.23;;;;;;;21.43;57.46;98399.92;129436;1095;113588;-81
2021/08/11 03:22:17;;;;;;;7.65;3.63;;;;;;;21.49;57.57;98400.34;129506;1096;113934;-81
2021/08/11 03:24:43;;;;;;;7.65;3.88;;;;;;;21.54;57.50;98397.27;129470;1095;114126;-81
2021/08/11 03:27:09;;;;;;;7.48;3.73;;;;;;;21.58;57.68;98403.55;129504;1096;114191;-81
2021/08/11 03:29:35;;;;;;;5.65;3.75;;;;;;;21.62;57.38;98398.88;129395;1096;114030;-81
2021/08/11 03:32:01;;;;;;;6.80;3.43;;;;;;;21.66;57.49;98396.95;129603;1096;22561;-81
2021/08/11 03:34:28;;;;;;;8.48;3.50;;;;;;;21.69;57.76;98406.34;129481;1096;113773;-81
2021/08/11 03:36:55;;;;;;;7.48;3.83;;;;;;;21.71;57.89;98401.28;129441;1095;114023;-81
2021/08/11 03:39:21;;;;;;;5.50;3.55;;;;;;;21.73;57.82;98404.41;129403;1095;114136;-81
2021/08/11 03:41:47;;;;;;;6.28;3.50;;;;;;;21.75;57.49;98413.05;129419;1096;114203;-81
2021/08/11 03:44:13;;;;;;;5.43;3.35;;;;;;;21.77;57.64;98414.25;129560;1096;22547;-81
2021/08/11 03:46:39;;;;;;;6.08;3.50;;;;;;;21.80;57.94;98404.45;129416;1096;112690;-81
2021/08/11 03:49:05;;;;;;;5.20;3.70;;;;;;;21.81;57.89;98408.76;129423;1096;114130;-81
2021/08/11 03:51:31;;;;;;;8.00;4.03;;;;;;;21.83;57.96;98406.44;129407;1096;114275;-81
2021/08/11 03:53:57;;;;;;;6.13;3.85;;;;;;;21.86;57.88;98410.38;129407;1095;114203;-81
2021/08/11 03:56:23;;;;;;;6.90;3.85;;;;;;;21.88;58.08;98411.55;129519;1096;22539;-81
2021/08/11 03:58:49;;;;;;;6.05;3.55;;;;;;;21.92;57.82;98417.83;129501;1096;113622;-81
2021/08/11 04:01:19;;;;;;;6.53;3.53;;;;;;;21.96;57.72;98417.86;129534;1096;113971;-81
2021/08/11 04:03:46;;;;;;;9.23;3.83;;;;;;;22.01;57.64;98420.25;129501;1096;114112;-81
2021/08/11 04:06:13;;;;;;;7.13;3.50;;;;;;;22.04;57.90;98419.46;129414;1096;114284;-81
2021/08/11 04:08:40;;;;;;;7.23;3.70;;;;;;;22.09;57.68;98424.59;129426;1096;114019;-81
2021/08/11 04:11:05;;;;;;;6.93;4.15;;;;;;;22.17;58.15;98423.48;129495;1095;22540;-81
2021/08/11 04:13:31;;;;;;;6.65;3.80;;;;;;;22.23;58.54;98423.89;129503;1096;113931;-81
2021/08/11 04:15:57;;;;;;;7.18;4.05;;;;;;;22.32;58.76;98437.24;129496;1096;113952;-81
2021/08/11 04:18:23;;;;;;;6.28;3.73;;;;;;;22.38;58.60;98425.52;129480;1096;114030;-81
2021/08/11 04:20:49;;;;;;;6.40;4.13;;;;;;;22.44;58.45;98421.25;129437;1096;112942;-81
2021/08/11 04:23:15;;;;;;;5.75;3.70;;;;;;;22.51;58.46;98436.92;129559;1095;23012;-81
2021/08/11 04:25:41;;;;;;;7.35;3.90;;;;;;;22.56;58.16;98428.34;129444;1096;114013;-81
2021/08/11 04:28:09;;;;;;;6.45;4.05;;;;;;;22.63;57.53;98444.80;129444;1097;114385;-81
2021/08/11 04:30:36;;;;;;;4.95;3.70;;;;;;;22.68;58.04;98443.66;129410;1096;114197;-81
2021/08/11 04:33:02;;;;;;;6.18;3.83;;;;;;;22.72;57.90;98430.73;129425;1096;114231;-81
2021/08/11 04:35:28;;;;;;;5.48;3.53;;;;;;;22.75;57.55;98424.44;129530;1096;22572;-81
2021/08/11 04:37:55;;;;;;;6.23;3.95;;;;;;;22.78;57.75;98438.17;129429;1096;113701;-81
2021/08/11 04:40:21;;;;;;;5.83;3.75;;;;;;;22.82;57.93;98434.66;129432;1096;114121;-81
2021/08/11 04:42:47;;;;;;;6.98;4.08;;;;;;;22.84;57.91;98440.56;129389;1096;114166;-81
2021/08/11 04:45:14;;;;;;;5.80;3.40;;;;;;;22.88;58.01;98444.09;129447;1096;114461;-81
2021/08/11 04:47:40;;;;;;;5.05;3.60;;;;;;;22.90;58.07;98442.52;129422;1095;114559;-81
2021/08/11 04:50:07;;;;;;;7.90;3.55;;;;;;;22.92;58.00;98448.45;129595;1095;22556;-81
2021/08/11 04:52:33;;;;;;;6.45;3.68;;;;;;;22.95;58.18;98455.91;129454;1095;113744;-81
2021/08/11 04:55:01;;;;;;;11.38;4.35;;;;;;;22.97;58.64;98456.30;129390;1096;113996;-81
2021/08/11 04:57:27;;;;;;;6.90;3.88;;;;;;;23.03;59.15;98451.22;129455;1096;114092;-81
2021/08/11 04:59:53;;;;;;;6.93;4.00;;;;;;;23.11;59.31;98452.80;129418;1096;114121;-80
2021/08/11 05:02:19;;;;;;;8.45;4.48;;;;;;;23.18;59.35;98446.50;129602;1096;22517;-80
2021/08/11 05:04:45;;;;;;;6.18;3.93;;;;;;;23.24;58.95;98445.73;129438;1096;113932;-80
2021/08/11 05:07:11;;;;;;;9.08;3.50;;;;;;;23.32;59.17;98451.23;129429;1097;114176;-80
2021/08/11 05:09:37;;;;;;;13.60;3.83;;;;;;;23.39;59.22;98456.73;129407;1096;114245;-80
2021/08/11 05:12:03;;;;;;;10.73;4.00;;;;;;;23.45;59.08;98452.40;129423;1096;114415;-80
2021/08/11 05:14:31;;;;;;;9.13;3.83;;;;;;;23.50;59.20;98452.00;129525;1096;22570;-80
2021/08/11 05:16:57;;;;;;;9.75;3.80;;;;;;;23.57;58.88;98451.22;129513;1096;22529;-80
2021/08/11 05:19:23;;;;;;;12.58;4.13;;;;;;;23.59;59.35;98457.90;129508;1096;113786;-81
2021/08/11 05:21:49;;;;;;;21.83;5.20;;;;;;;23.63;59.32;98463.39;129380;1096;114314;-80
2021/08/11 05:24:15;;;;;;;7.83;3.53;;;;;;;23.65;59.64;98456.30;129466;1095;114504;-80
2021/08/11 05:26:42;;;;;;;12.30;3.90;;;;;;;23.66;59.48;98463.42;129385;1096;114254;-80
2021/08/11 05:29:08;;;;;;;11.30;3.90;;;;;;;23.69;59.58;98464.58;129553;1096;22508;-82
2021/08/11 05:31:34;;;;;;;5.53;3.45;;;;;;;23.72;59.54;98467.33;129406;1096;114256;-81
2021/08/11 05:34:00;;;;;;;6.95;3.60;;;;;;;23.74;59.81;98472.45;129534;1096;113983;-81
2021/08/11 05:36:26;;;;;;;8.83;3.63;;;;;;;23.75;59.58;98452.80;129397;1096;114032;-82
2021/08/11 05:38:52;;;;;;;10.63;4.18;;;;;;;23.78;59.50;98459.48;129411;1096;114187;-82
2021/08/11 05:41:18;;;;;;;8.60;4.20;;;;;;;23.82;58.85;98462.23;129531;1096;22536;-82
2021/08/11 05:43:44;;;;;;;7.05;3.88;;;;;;;23.85;58.86;98464.16;129409;1096;114167;-82
2021/08/11 05:46:10;;;;;;;6.63;3.80;;;;;;;23.92;58.73;98470.44;129516;1096;113963;-81
2021/08/11 05:48:36;;;;;;;6.20;3.75;;;;;;;23.99;58.83;98480.66;129441;1096;114089;-82
2021/08/11 05:51:02;;;;;;;5.65;3.80;;;;;;;24.04;58.18;98488.49;129533;1096;114580;-82
2021/08/11 05:53:28;;;;;;;7.65;4.65;;;;;;;24.11;57.66;98482.20;129600;1096;22545;-82
2021/08/11 05:55:53;;;;;;;6.75;4.28;;;;;;;24.18;56.81;98484.94;129394;1096;113803;-82
2021/08/11 05:58:20;;;;;;;6.45;3.80;;;;;;;24.26;56.93;98480.98;129543;1095;114135;-82
2021/08/11 06:00:46;;;;;;;8.28;4.65;;;;;;;24.35;56.64;98480.55;129416;1096;114288;-82
2021/08/11 06:03:12;;;;;;;8.88;4.10;;;;;;;24.44;56.15;98487.25;129435;1096;114301;-82
2021/08/11 06:05:38;;;;;;;6.75;4.03;;;;;;;24.54;56.54;98493.88;129435;1096;114289;-82
2021/08/11 06:08:05;;;;;;;6.20;4.08;;;;;;;24.64;56.64;98487.55;129531;1096;22571;-81
2021/08/11 06:10:31;;;;;;;9.10;4.28;;;;;;;24.73;56.20;98493.40;129415;1096;114031;-82
2021/08/11 06:12:58;;;;;;;7.80;4.30;;;;;;;24.83;55.87;98483.50;129437;1096;115040;-84
2021/08/11 06:15:24;;;;;;;7.15;4.00;;;;;;;24.96;55.85;98490.13;129412;1095;114161;-84
2021/08/11 06:17:50;;;;;;;8.08;3.90;;;;;;;25.10;55.53;98494.79;129423;1095;114032;-84
2021/08/11 06:20:20;;;;;;;6.03;3.90;;;;;;;25.25;54.89;98492.73;129509;1096;22543;-84
2021/08/11 06:22:46;;;;;;;7.18;4.18;;;;;;;25.41;55.21;98487.48;129409;1095;113794;-84
2021/08/11 06:25:13;;;;;;;7.13;4.10;;;;;;;25.56;54.51;98485.41;129436;1096;114107;-84
2021/08/11 06:27:40;;;;;;;7.15;4.03;;;;;;;25.69;53.99;98486.46;129397;1096;114205;-84
2021/08/11 06:30:08;;;;;;;5.88;3.90;;;;;;;25.79;53.38;98492.34;129429;1096;114097;-84
2021/08/11 06:32:34;;;;;;;7.68;4.43;;;;;;;25.80;53.11;98480.88;129451;1095;114088;-84
2021/08/11 06:35:01;;;;;;;8.45;4.20;;;;;;;25.80;52.80;98483.64;129552;1096;22544;-84
2021/08/11 06:37:27;;;;;;;6.45;4.05;;;;;;;25.80;52.77;98486.40;129424;1096;113916;-84
2021/08/11 06:39:54;;;;;;;5.53;3.53;;;;;;;25.79;52.10;98481.30;129434;1096;114240;-83
2021/08/11 06:42:20;;;;;;;7.10;3.85;;;;;;;25.81;51.96;98476.14;129411;1096;114138;-83
2021/08/11 06:44:45;;;;;;;6.50;3.78;;;;;;;25.93;51.65;98478.39;129436;1096;114070;-83
2021/08/11 06:47:12;;;;;;;9.18;4.43;;;;;;;26.02;51.40;98480.69;129492;1096;23283;-84
2021/08/11 06:49:38;;;;;;;7.68;3.85;;;;;;;26.11;51.25;98480.98;129416;1095;113842;-86
2021/08/11 06:52:04;;;;;;;7.65;4.10;;;;;;;26.23;50.74;98477.69;129482;1096;113956;-85
2021/08/11 06:54:31;;;;;;;5.98;3.93;;;;;;;26.32;50.88;98491.77;129502;1096;113975;-85
2021/08/11 06:56:57;;;;;;;7.33;3.90;;;;;;;26.43;49.99;98488.89;129518;1096;114211;-85
2021/08/11 06:59:23;;;;;;;7.78;4.08;;;;;;;26.52;49.69;98488.41;129544;1097;22528;-86
2021/08/11 07:01:49;;;;;;;8.20;3.78;;;;;;;26.62;49.68;98491.05;129396;1095;114050;-88
2021/08/11 07:04:37;;;;;;;6.55;3.78;;;;;;;26.73;49.37;98498.43;129386;1097;114135;-91
2021/08/11 07:07:43;;;;;;;6.68;3.68;;;;;;;26.84;48.97;98494.33;129445;1096;113993;-91
2021/08/11 07:10:33;;;;;;;7.05;3.90;;;;;;;27.00;48.16;98501.20;129487;1096;113985;-90
2021/08/11 07:13:03;;;;;;;8.28;4.28;;;;;;;27.09;47.42;98496.73;129415;1095;114009;-90
2021/08/11 07:16:08;;;;;;;9.25;4.40;;;;;;;27.20;47.21;98498.59;129411;1096;114416;-91
2021/08/11 07:18:34;;;;;;;7.95;4.28;;;;;;;27.31;46.78;98504.72;129426;1095;113934;-90
2021/08/11 07:21:00;;;;;;;5.85;3.73;;;;;;;27.38;45.99;98501.86;129420;1096;114158;-89
2021/08/11 07:23:27;;;;;;;7.25;3.80;;;;;;;27.47;45.44;98507.66;129530;1096;22500;-88
2021/08/11 07:26:33;;;;;;;6.50;3.98;;;;;;;27.55;45.18;98503.57;129408;1096;113569;-90
2021/08/11 07:29:55;;;;;;;6.18;3.73;;;;;;;27.66;44.33;98506.14;129425;1096;113942;-90
2021/08/11 07:32:23;;;;;;;6.08;3.78;;;;;;;27.77;43.98;98511.53;129585;1096;23014;-88
2021/08/11 07:34:49;;;;;;;6.70;3.80;;;;;;;27.85;43.87;98510.98;129442;1096;113812;-89
2021/08/11 07:37:16;;;;;;;5.68;4.00;;;;;;;27.94;43.24;98504.89;129413;1096;114386;-89
2021/08/11 07:39:42;;;;;;;5.58;3.50;;;;;;;28.04;42.83;98508.69;129423;1096;113972;-88
2021/08/11 07:42:08;;;;;;;5.58;3.70;;;;;;;28.16;43.11;98504.52;129415;1095;114223;-88
2021/08/11 07:44:34;;;;;;;6.33;3.80;;;;;;;28.27;42.86;98505.10;129421;1096;114099;-87
2021/08/11 07:47:01;;;;;;;5.18;3.78;;;;;;;28.35;42.60;98507.30;129534;1096;23735;-90
2021/08/11 07:49:28;;;;;;;6.48;3.70;;;;;;;28.46;42.60;98506.34;129427;1096;113717;-90
2021/08/11 07:51:54;;;;;;;8.23;3.93;;;;;;;28.56;41.72;98508.88;129393;1095;114231;-87
2021/08/11 07:54:20;;;;;;;5.90;3.73;;;;;;;28.64;40.29;98509.52;129421;1096;114026;-87
2021/08/11 07:56:48;;;;;;;6.48;3.53;;;;;;;28.71;39.62;98509.38;129445;1096;114053;-90
2021/08/11 07:59:31;;;;;;;6.45;3.90;;;;;;;28.82;39.70;98517.47;129541;1096;22558;-86
2021/08/11 08:01:58;;;;;;;6.03;3.78;;;;;;;28.90;39.53;98505.02;129577;1096;22557;-88
2021/08/11 08:04:43;;;;;;;6.40;3.80;;;;;;;28.98;38.80;98506.45;129378;1096;113992;-91
2021/08/11 08:07:10;;;;;;;4.98;3.43;;;;;;;29.08;37.89;98504.64;129475;1096;113969;-88
2021/08/11 08:09:36;;;;;;;7.70;3.60;;;;;;;29.16;38.01;98513.58;129381;1096;113977;-88
2021/08/11 08:12:03;;;;;;;7.08;3.50;;;;;;;29.22;37.95;98512.64;129360;1096;114362;-86
2021/08/11 08:14:29;;;;;;;6.85;3.88;;;;;;;29.33;38.54;98510.41;129500;1095;23444;-86
2021/08/11 08:16:55;;;;;;;7.35;3.73;;;;;;;29.41;37.26;98507.47;129524;1096;113661;-86
2021/08/11 08:19:21;;;;;;;4.95;3.35;;;;;;;29.50;37.38;98507.63;129404;1096;114256;-86
2021/08/11 08:21:47;;;;;;;6.40;3.65;;;;;;;29.61;37.22;98518.52;129376;1095;114172;-85
2021/08/11 08:24:13;;;;;;;6.20;3.60;;;;;;;29.71;36.54;98509.13;129524;1096;114461;-85
2021/08/11 08:26:39;;;;;;;7.23;3.70;;;;;;;29.81;36.11;98519.19;129384;1097;114086;-85
2021/08/11 08:29:04;;;;;;;6.40;3.40;;;;;;;29.90;35.26;98513.01;129529;1095;23292;-85
2021/08/11 08:31:30;;;;;;;3.83;2.88;;;;;;;30.00;34.57;98512.73;129450;1095;113839;-85
2021/08/11 08:33:57;;;;;;;5.18;2.95;;;;;;;30.07;34.37;98511.78;129420;1096;114313;-85
2021/08/11 08:36:23;;;;;;;5.05;3.25;;;;;;;30.19;34.23;98516.64;129437;1096;114045;-85
2021/08/11 08:38:49;;;;;;;7.58;3.13;;;;;;;30.26;33.93;98516.45;129353;1096;115370;-85
2021/08/11 08:41:16;;;;;;;3.78;2.88;;;;;;;30.32;32.70;98519.46;129516;1096;22552;-85
2021/08/11 08:43:42;;;;;;;3.70;2.60;;;;;;;30.35;32.50;98520.59;129464;1096;113771;-85
2021/08/11 08:46:09;;;;;;;6.88;3.40;;;;;;;30.36;32.41;98522.92;129461;1095;114159;-86
2021/08/11 08:48:40;;;;;;;4.08;3.05;;;;;;;30.43;32.51;98525.50;129405;1096;114137;-85
2021/08/11 08:51:13;;;;;;;4.35;3.30;;;;;;;30.51;31.92;98521.30;129404;1096;115440;-85
2021/08/11 08:53:44;;;;;;;5.80;2.90;;;;;;;30.57;32.29;98527.09;129488;1095;114631;-85
2021/08/11 08:56:11;;;;;;;6.43;2.90;;;;;;;30.66;32.57;98532.80;129548;1096;23051;-85
2021/08/11 08:58:38;;;;;;;3.95;2.80;;;;;;;30.71;32.13;98526.69;129408;1097;113975;-85
2021/08/11 09:01:04;;;;;;;4.13;2.95;;;;;;;30.81;31.77;98519.27;129520;1096;114277;-85
2021/08/11 09:03:30;;;;;;;3.60;2.80;;;;;;;30.92;31.68;98533.64;129417;1096;114304;-85
2021/08/11 09:05:56;;;;;;;4.65;2.75;;;;;;;31.02;31.14;98532.55;129423;1096;114599;-85
2021/08/11 09:08:22;;;;;;;3.93;2.88;;;;;;;31.09;31.00;98534.35;129588;1095;22549;-85
2021/08/11 09:10:48;;;;;;;5.80;3.18;;;;;;;31.18;30.72;98531.67;129403;1095;114119;-85
2021/08/11 09:13:22;;;;;;;5.28;2.95;;;;;;;31.26;30.77;98532.23;129464;1095;114169;-85
2021/08/11 09:15:49;;;;;;;3.13;2.55;;;;;;;31.35;30.88;98526.80;129412;1095;114046;-85
2021/08/11 09:18:20;;;;;;;5.05;3.20;;;;;;;31.46;31.19;98523.69;129492;1095;114498;-85
2021/08/11 09:20:47;;;;;;;;;;;;;;;31.56;30.91;98524.55;129453;1096;114325;-86
2021/08/11 09:23:15;;;;;;;7.65;3.25;;;;;;;31.64;30.66;98518.33;129489;1096;21234;-85
2021/08/11 09:26:01;;;;;;;4.18;2.75;;;;;;;31.72;30.27;98532.79;129414;1096;113807;-85
2021/08/11 09:28:34;;;;;;;4.00;3.15;;;;;;;31.79;30.26;98538.09;129380;1096;114223;-86
2021/08/11 09:31:00;;;;;;;4.15;2.78;;;;;;;31.85;30.29;98536.34;129480;1095;113967;-85
2021/08/11 09:33:27;;;;;;;3.73;2.85;;;;;;;31.89;29.16;98534.22;129425;1096;114233;-86
2021/08/11 09:35:54;;;;;;;4.53;3.13;;;;;;;31.92;29.03;98533.33;129410;1096;114354;-85
2021/08/11 09:38:21;;;;;;;5.75;3.30;;;;;;;31.99;28.89;98530.30;129501;1096;22525;-85
2021/08/11 09:40:49;;;;;;;4.25;2.85;;;;;;;32.08;28.87;98529.59;129397;1096;113833;-85
2021/08/11 09:43:31;;;;;;;5.30;3.25;;;;;;;32.16;29.22;98524.56;129472;1096;114148;-85
2021/08/11 09:45:57;;;;;;;6.40;3.05;;;;;;;32.24;29.01;98531.44;129383;1095;114067;-85
2021/08/11 09:48:26;;;;;;;4.38;3.43;;;;;;;32.34;29.11;98529.48;129401;1095;114212;-85
2021/08/11 09:50:59;;;;;;;13.88;4.30;;;;;;;32.43;28.61;98532.39;129391;1095;114233;-88
2021/08/11 09:53:28;;;;;;;6.25;3.40;;;;;;;32.51;29.33;98525.33;129620;1096;22548;-87
2021/08/11 09:56:01;;;;;;;4.75;3.35;;;;;;;32.61;29.36;98529.71;129480;1096;113582;-89
2021/08/11 09:58:29;;;;;;;5.13;3.53;;;;;;;32.72;29.42;98524.52;129504;1096;114095;-89
2021/08/11 10:00:55;;;;;;;5.40;3.78;;;;;;;32.82;29.59;98535.75;129435;1096;114052;-88
2021/08/11 10:03:50;;;;;;;5.58;3.88;;;;;;;32.92;29.68;98532.53;129543;1096;114356;-89
2021/08/11 10:06:34;;;;;;;5.78;3.65;;;;;;;32.92;29.57;98528.97;129444;1096;113980;-89
2021/08/11 10:09:15;;;;;;;;;;;;;;;32.94;29.96;98537.70;129437;1096;114386;-89
2021/08/11 10:11:44;;;;;;;6.95;3.98;;;;;;;32.95;29.32;98544.83;129422;1096;100300;-90
2021/08/11 10:14:13;;;;;;;5.60;3.70;;;;;;;32.90;29.18;98537.81;129516;1095;22524;-87
2021/08/11 10:16:42;;;;;;;5.90;4.10;;;;;;;32.90;29.10;98531.45;129453;1096;113945;-90
2021/08/11 10:19:11;;;;;;;6.60;3.70;;;;;;;32.90;29.79;98529.44;129519;1096;113894;-89
2021/08/11 10:22:30;;;;;;;5.58;3.98;;;;;;;32.99;30.01;98535.09;129544;1097;114017;-92
2021/08/11 10:25:19;;;;;;;4.98;3.33;;;;;;;33.07;29.80;98526.45;129521;1096;113945;-91
2021/08/11 10:27:54;;;;;;;7.18;3.50;;;;;;;33.13;29.57;98542.14;129416;1096;112976;-90
2021/08/11 10:30:41;;;;;;;5.58;3.53;;;;;;;33.09;29.70;98543.49;129481;1096;115194;-89
2021/08/11 10:33:10;;;;;;;8.28;4.48;;;;;;;33.08;29.41;98530.78;129427;1095;114820;-89
2021/08/11 10:35:38;;;;;;;6.23;3.98;;;;;;;33.09;29.56;98538.72;129426;1096;114395;-88
2021/08/11 10:38:06;;;;;;;5.70;4.08;;;;;;;33.14;30.10;98549.27;129559;1096;22535;-89
2021/08/11 10:40:53;;;;;;;6.50;4.23;;;;;;;33.18;30.26;98535.19;129484;1096;114067;-89
2021/08/11 10:43:21;;;;;;;6.95;3.83;;;;;;;33.35;30.36;98532.92;129444;1096;114110;-88
2021/08/11 10:46:00;;;;;;;5.85;3.95;;;;;;;33.54;30.69;98536.58;129430;1095;114589;-85
2021/08/11 10:48:26;;;;;;;6.48;4.00;;;;;;;33.65;30.02;98540.48;129506;1095;114199;-86
2021/08/11 10:50:53;;;;;;;6.70;3.63;;;;;;;33.70;28.66;98534.29;129421;1096;114196;-86
2021/08/11 10:53:20;;;;;;;7.80;3.85;;;;;;;33.65;29.05;98534.13;129626;1096;22536;-86
2021/08/11 10:55:48;;;;;;;5.73;3.75;;;;;;;33.67;28.64;98528.84;129452;1096;113975;-86
2021/08/11 10:58:38;;;;;;;5.08;3.68;;;;;;;33.74;29.13;98536.16;129486;1094;113972;-86
2021/08/11 11:01:40;;;;;;;5.53;3.13;;;;;;;33.89;29.58;98539.91;129506;1095;114114;-87
2021/08/11 11:04:06;;;;;;;6.38;3.63;;;;;;;33.99;28.87;98532.34;128547;1100;113980;-86
2021/08/11 11:07:12;;;;;;;5.38;3.75;;;;;;;34.18;28.83;98537.47;129173;1096;114031;-86
2021/08/11 11:09:40;;;;;;;7.43;3.70;;;;;;;34.38;28.09;98533.44;129427;1096;114374;-87
2021/08/11 11:12:19;;;;;;;5.40;3.83;;;;;;;34.55;27.74;98529.11;129408;1096;114594;-88
2021/08/11 11:14:56;;;;;;;5.50;3.65;;;;;;;34.63;27.53;98535.16;129515;1096;113997;-89
2021/08/11 11:17:48;;;;;;;5.35;3.38;;;;;;;34.69;27.00;98542.43;129511;1097;22573;-88
2021/08/11 11:20:16;;;;;;;5.60;3.45;;;;;;;34.77;26.81;98536.52;129415;1095;114143;-89
2021/08/11 11:22:54;;;;;;;7.38;4.03;;;;;;;34.96;26.97;98537.25;129513;1096;22536;-88
2021/08/11 11:25:40;;;;;;;6.00;3.60;;;;;;;35.13;26.51;98532.86;129419;1096;113788;-88
2021/08/11 11:28:08;;;;;;;5.65;3.80;;;;;;;35.30;26.03;98538.88;129415;1096;114457;-90
2021/08/11 11:30:35;;;;;;;6.60;4.13;;;;;;;35.45;26.05;98528.54;129431;1096;114179;-89
2021/08/11 11:33:31;;;;;;;5.68;3.60;;;;;;;35.52;26.57;98527.42;129418;1096;114300;-89
2021/08/11 11:36:20;;;;;;;5.53;3.50;;;;;;;35.69;25.59;98525.78;129366;1096;114204;-88
2021/08/11 11:39:06;;;;;;;4.58;3.45;;;;;;;35.70;25.68;98523.75;129430;1096;114127;-87
2021/08/11 11:41:34;;;;;;;5.23;3.48;;;;;;;35.69;24.61;98513.81;129441;1095;114125;-89
2021/08/11 11:44:37;;;;;;;6.85;3.75;;;;;;;35.83;24.71;98532.69;129541;1096;22524;-90
2021/08/11 11:47:03;;;;;;;5.00;3.55;;;;;;;35.88;24.17;98516.01;129515;1096;22591;-87
2021/08/11 11:49:30;;;;;;;7.25;3.83;;;;;;;35.87;25.01;98527.67;129468;1096;113868;-89
2021/08/11 11:51:56;;;;;;;6.68;3.68;;;;;;;36.03;25.22;98518.09;129480;1096;113931;-87
2021/08/11 11:54:24;;;;;;;8.48;4.43;;;;;;;36.21;24.65;98520.76;129444;1096;114069;-87
2021/08/11 11:56:50;;;;;;;4.90;3.80;;;;;;;36.43;24.43;98517.59;129418;1095;114239;-86
2021/08/11 11:59:18;;;;;;;7.60;4.40;;;;;;;36.56;25.11;98514.55;129598;1096;22535;-87
2021/08/11 12:02:13;;;;;;;6.20;3.80;;;;;;;36.72;24.87;98514.07;129410;1096;113946;-92
2021/08/11 12:04:39;;;;;;;6.43;3.93;;;;;;;36.95;24.16;98506.83;129465;1095;115437;-87